sensor_id;sensor_type;location;lat;lon;timestamp;pressure;altitude;pressure_sealevel;temperature;humidity
18323;BME280;9287;49.456;11.064;2023-05-01T00:01:56;98230.13;;;10.92;78.01
18323;BME280;9287;49.456;11.064;2023-05-01T00:04:24;98225.44;;;10.92;77.13
18323;BME280;9287;49.456;11.064;2023-05-01T00:06:52;98228.84;;;11.01;76.51
18323;BME280;9287;49.456;11.064;2023-05-01T00:09:20;98227.84;;;10.94;76.87
18323;BME280;9287;49.456;11.064;2023-05-01T00:11:49;98222.47;;;10.97;75.95
18323;BME280;9287;49.456;11.064;2023-05-01T00:14:20;98222.47;;;10.97;75.91
18323;BME280;9287;49.456;11.064;2023-05-01T00:16:49;98215.03;;;10.82;76.93
18323;BME280;9287;49.456;11.064;2023-05-01T00:19:18;98216.63;;;10.83;76.02
18323;BME280;9287;49.456;11.064;2023-05-01T00:21:48;98213.78;;;10.79;75.52
18323;BME280;9287;49.456;11.064;2023-05-01T00:24:17;98218.69;;;10.74;75.42
18323;BME280;9287;49.456;11.064;2023-05-01T00:26:45;98205.50;;;10.76;74.50
18323;BME280;9287;49.456;11.064;2023-05-01T00:29:21;98201.63;;;10.77;74.65
18323;BME280;9287;49.456;11.064;2023-05-01T00:31:51;98203.91;;;10.75;74.43
18323;BME280;9287;49.456;11.064;2023-05-01T00:34:21;98190.91;;;10.84;72.99
18323;BME280;9287;49.456;11.064;2023-05-01T00:36:53;98197.25;;;10.88;72.74
18323;BME280;9287;49.456;11.064;2023-05-01T00:39:24;98188.66;;;10.74;72.77
18323;BME280;9287;49.456;11.064;2023-05-01T00:41:54;98190.25;;;10.75;72.49
18323;BME280;9287;49.456;11.064;2023-05-01T00:44:23;98184.38;;;10.73;72.76
18323;BME280;9287;49.456;11.064;2023-05-01T00:46:54;98182.78;;;10.72;72.46
18323;BME280;9287;49.456;11.064;2023-05-01T00:49:32;98182.31;;;10.70;70.67
18323;BME280;9287;49.456;11.064;2023-05-01T00:52:03;98177.09;;;10.65;70.66
18323;BME280;9287;49.456;11.064;2023-05-01T00:54:30;98173.47;;;10.61;71.21
18323;BME280;9287;49.456;11.064;2023-05-01T00:57:00;98180.97;;;10.64;70.24
18323;BME280;9287;49.456;11.064;2023-05-01T00:59:29;98165.28;;;10.61;70.63
18323;BME280;9287;49.456;11.064;2023-05-01T01:01:58;98176.19;;;10.61;69.88
18323;BME280;9287;49.456;11.064;2023-05-01T01:04:29;98167.22;;;10.60;70.21
18323;BME280;9287;49.456;11.064;2023-05-01T01:07:07;98161.66;;;10.57;70.49
18323;BME280;9287;49.456;11.064;2023-05-01T01:09:48;98151.91;;;10.56;70.31
18323;BME280;9287;49.456;11.064;2023-05-01T01:12:28;98158.72;;;10.50;70.65
18323;BME280;9287;49.456;11.064;2023-05-01T01:15:13;98156.47;;;10.39;70.78
18323;BME280;9287;49.456;11.064;2023-05-01T01:17:46;98147.59;;;10.42;71.00
18323;BME280;9287;49.456;11.064;2023-05-01T01:20:23;98156.84;;;10.38;71.60
18323;BME280;9287;49.456;11.064;2023-05-01T01:23:03;98153.06;;;10.42;70.46
18323;BME280;9287;49.456;11.064;2023-05-01T01:26:03;98143.34;;;10.29;71.44
18323;BME280;9287;49.456;11.064;2023-05-01T01:31:32;98151.53;;;10.29;71.66
18323;BME280;9287;49.456;11.064;2023-05-01T01:34:12;98144.22;;;10.33;71.42
18323;BME280;9287;49.456;11.064;2023-05-01T01:36:46;98146.63;;;10.35;71.35
18323;BME280;9287;49.456;11.064;2023-05-01T01:39:26;98147.09;;;10.25;72.35
18323;BME280;9287;49.456;11.064;2023-05-01T01:41:57;98138.34;;;10.07;73.02
18323;BME280;9287;49.456;11.064;2023-05-01T01:44:32;98137.22;;;10.08;72.95
18323;BME280;9287;49.456;11.064;2023-05-01T01:47:04;98137.44;;;10.15;73.43
18323;BME280;9287;49.456;11.064;2023-05-01T01:49:36;98135.44;;;10.00;73.82
18323;BME280;9287;49.456;11.064;2023-05-01T01:52:05;98132.81;;;9.91;74.33
18323;BME280;9287;49.456;11.064;2023-05-01T01:54:39;98134.41;;;9.92;74.26
18323;BME280;9287;49.456;11.064;2023-05-01T01:57:13;98133.16;;;9.90;73.78
18323;BME280;9287;49.456;11.064;2023-05-01T01:59:44;98135.00;;;9.86;74.15
18323;BME280;9287;49.456;11.064;2023-05-01T02:02:15;98128.53;;;9.78;74.56
18323;BME280;9287;49.456;11.064;2023-05-01T02:04:53;98136.59;;;9.74;74.78
18323;BME280;9287;49.456;11.064;2023-05-01T02:07:25;98129.56;;;9.86;74.57
18323;BME280;9287;49.456;11.064;2023-05-01T02:09:56;98130.00;;;9.75;74.75
18323;BME280;9287;49.456;11.064;2023-05-01T02:12:25;98130.00;;;9.75;74.61
18323;BME280;9287;49.456;11.064;2023-05-01T02:14:57;98121.41;;;9.61;75.35
18323;BME280;9287;49.456;11.064;2023-05-01T02:17:28;98123.44;;;9.64;75.21
18323;BME280;9287;49.456;11.064;2023-05-01T02:19:58;98115.72;;;9.66;74.58
18323;BME280;9287;49.456;11.064;2023-05-01T02:22:27;98116.41;;;9.63;75.27
18323;BME280;9287;49.456;11.064;2023-05-01T02:24:59;98116.59;;;9.70;74.83
18323;BME280;9287;49.456;11.064;2023-05-01T02:27:30;98115.50;;;9.59;75.37
18323;BME280;9287;49.456;11.064;2023-05-01T02:30:02;98113.44;;;9.56;76.03
18323;BME280;9287;49.456;11.064;2023-05-01T02:32:32;98115.59;;;9.63;75.26
18323;BME280;9287;49.456;11.064;2023-05-01T02:35:02;98111.19;;;9.46;76.80
18323;BME280;9287;49.456;11.064;2023-05-01T02:37:34;98108.00;;;9.44;76.80
18323;BME280;9287;49.456;11.064;2023-05-01T02:40:05;98103.00;;;9.46;77.45
18323;BME280;9287;49.456;11.064;2023-05-01T02:42:36;98102.78;;;9.51;77.86
18323;BME280;9287;49.456;11.064;2023-05-01T02:45:09;98101.19;;;9.50;77.10
18323;BME280;9287;49.456;11.064;2023-05-01T02:47:51;98090.97;;;9.47;77.31
18323;BME280;9287;49.456;11.064;2023-05-01T02:50:24;98092.56;;;9.36;78.41
18323;BME280;9287;49.456;11.064;2023-05-01T02:52:53;98089.75;;;9.32;78.63
18323;BME280;9287;49.456;11.064;2023-05-01T02:55:26;98093.91;;;9.42;78.23
18323;BME280;9287;49.456;11.064;2023-05-01T02:57:58;98098.25;;;9.31;78.91
18323;BME280;9287;49.456;11.064;2023-05-01T03:00:27;98087.56;;;9.26;79.11
18323;BME280;9287;49.456;11.064;2023-05-01T03:02:57;98095.50;;;9.19;79.54
18323;BME280;9287;49.456;11.064;2023-05-01T03:05:26;98091.44;;;9.13;80.45
18323;BME280;9287;49.456;11.064;2023-05-01T03:07:54;98088.72;;;9.25;79.95
18323;BME280;9287;49.456;11.064;2023-05-01T03:10:23;98091.44;;;9.13;80.46
18323;BME280;9287;49.456;11.064;2023-05-01T03:12:51;98089.03;;;9.11;80.07
18323;BME280;9287;49.456;11.064;2023-05-01T03:15:19;98091.31;;;9.21;79.99
18323;BME280;9287;49.456;11.064;2023-05-01T03:17:48;98106.66;;;9.26;80.43
18323;BME280;9287;49.456;11.064;2023-05-01T03:20:16;98100.94;;;9.19;79.57
18323;BME280;9287;49.456;11.064;2023-05-01T03:22:47;98094.38;;;9.07;81.05
18323;BME280;9287;49.456;11.064;2023-05-01T03:25:15;98090.28;;;9.01;81.34
18323;BME280;9287;49.456;11.064;2023-05-01T03:27:44;98084.41;;;9.12;80.16
18323;BME280;9287;49.456;11.064;2023-05-01T03:30:14;98089.47;;;9.01;80.76
18323;BME280;9287;49.456;11.064;2023-05-01T03:32:44;98078.72;;;9.04;80.92
18323;BME280;9287;49.456;11.064;2023-05-01T03:35:12;98081.69;;;8.99;81.06
18323;BME280;9287;49.456;11.064;2023-05-01T03:37:40;98078.50;;;8.97;81.51
18323;BME280;9287;49.456;11.064;2023-05-01T03:40:11;98072.34;;;9.00;81.29
18323;BME280;9287;49.456;11.064;2023-05-01T03:42:42;98067.13;;;9.07;80.59
18323;BME280;9287;49.456;11.064;2023-05-01T03:45:18;98070.06;;;9.02;80.44
18323;BME280;9287;49.456;11.064;2023-05-01T03:47:45;98065.53;;;9.06;80.26
18323;BME280;9287;49.456;11.064;2023-05-01T03:50:14;98062.47;;;9.08;80.29
18323;BME280;9287;49.456;11.064;2023-05-01T03:52:42;98060.56;;;8.96;80.87
18323;BME280;9287;49.456;11.064;2023-05-01T03:55:14;98059.63;;;8.92;80.98
18323;BME280;9287;49.456;11.064;2023-05-01T03:57:44;98052.16;;;9.01;80.64
18323;BME280;9287;49.456;11.064;2023-05-01T04:00:13;98053.97;;;8.97;81.18
18323;BME280;9287;49.456;11.064;2023-05-01T04:02:44;98053.53;;;8.95;80.79
18323;BME280;9287;49.456;11.064;2023-05-01T04:05:12;98050.34;;;8.93;81.39
18323;BME280;9287;49.456;11.064;2023-05-01T04:07:40;98052.16;;;8.89;80.70
18323;BME280;9287;49.456;11.064;2023-05-01T04:10:08;98048.97;;;8.75;81.61
18323;BME280;9287;49.456;11.064;2023-05-01T04:12:40;98059.84;;;8.75;81.41
18323;BME280;9287;49.456;11.064;2023-05-01T04:15:08;98063.56;;;8.70;82.57
18323;BME280;9287;49.456;11.064;2023-05-01T04:17:37;98064.50;;;8.75;82.35
18323;BME280;9287;49.456;11.064;2023-05-01T04:20:08;98060.53;;;8.84;81.52
18323;BME280;9287;49.456;11.064;2023-05-01T04:22:36;98061.66;;;8.83;81.34
18323;BME280;9287;49.456;11.064;2023-05-01T04:25:06;98058.50;;;8.81;80.77
18323;BME280;9287;49.456;11.064;2023-05-01T04:27:35;98064.03;;;8.85;80.18
18323;BME280;9287;49.456;11.064;2023-05-01T04:30:07;98062.56;;;8.87;80.52
18323;BME280;9287;49.456;11.064;2023-05-01T04:32:39;98061.91;;;8.78;79.97
18323;BME280;9287;49.456;11.064;2023-05-01T04:35:09;98058.25;;;8.74;81.36
18323;BME280;9287;49.456;11.064;2023-05-01T04:37:38;98061.44;;;8.76;81.06
18323;BME280;9287;49.456;11.064;2023-05-01T04:40:07;98051.69;;;8.87;80.41
18323;BME280;9287;49.456;11.064;2023-05-01T04:42:40;98061.22;;;8.81;80.72
18323;BME280;9287;49.456;11.064;2023-05-01T04:45:10;98066.22;;;8.91;79.98
18323;BME280;9287;49.456;11.064;2023-05-01T04:47:43;98055.53;;;8.86;80.17
18323;BME280;9287;49.456;11.064;2023-05-01T04:50:12;98063.38;;;8.76;80.48
18323;BME280;9287;49.456;11.064;2023-05-01T04:52:39;98064.97;;;8.89;79.93
18323;BME280;9287;49.456;11.064;2023-05-01T04:55:08;98059.63;;;8.92;79.99
18323;BME280;9287;49.456;11.064;2023-05-01T04:57:37;98061.91;;;8.90;78.55
18323;BME280;9287;49.456;11.064;2023-05-01T05:00:06;98057.13;;;8.87;78.82
18323;BME280;9287;49.456;11.064;2023-05-01T05:02:36;98057.13;;;8.75;79.51
18323;BME280;9287;49.456;11.064;2023-05-01T05:05:08;98051.00;;;8.90;78.87
18323;BME280;9287;49.456;11.064;2023-05-01T05:07:36;98048.53;;;8.97;77.63
18323;BME280;9287;49.456;11.064;2023-05-01T05:10:05;98051.81;;;9.03;77.42
18323;BME280;9287;49.456;11.064;2023-05-01T05:12:34;98055.31;;;9.03;76.08
18323;BME280;9287;49.456;11.064;2023-05-01T05:15:04;98049.88;;;9.03;76.10
18323;BME280;9287;49.456;11.064;2023-05-01T05:17:34;98044.53;;;9.19;74.53
18323;BME280;9287;49.456;11.064;2023-05-01T05:20:03;98052.63;;;9.16;75.43
18323;BME280;9287;49.456;11.064;2023-05-01T05:22:35;98047.63;;;9.05;75.22
18323;BME280;9287;49.456;11.064;2023-05-01T05:25:06;98051.25;;;9.22;73.70
18323;BME280;9287;49.456;11.064;2023-05-01T05:27:36;98051.25;;;9.22;74.03
18323;BME280;9287;49.456;11.064;2023-05-01T05:30:06;98046.03;;;9.29;74.35
18323;BME280;9287;49.456;11.064;2023-05-01T05:32:36;98058.41;;;9.26;73.69
18323;BME280;9287;49.456;11.064;2023-05-01T05:35:07;98059.63;;;9.41;72.84
18323;BME280;9287;49.456;11.064;2023-05-01T05:37:35;98058.03;;;9.40;72.42
18323;BME280;9287;49.456;11.064;2023-05-01T05:40:07;98049.38;;;9.62;71.06
18323;BME280;9287;49.456;11.064;2023-05-01T05:42:37;98046.09;;;9.57;71.42
18323;BME280;9287;49.456;11.064;2023-05-01T05:45:08;98044.50;;;9.68;70.29
18323;BME280;9287;49.456;11.064;2023-05-01T05:47:37;98041.56;;;9.89;69.00
18323;BME280;9287;49.456;11.064;2023-05-01T05:50:07;98048.88;;;9.85;69.35
18323;BME280;9287;49.456;11.064;2023-05-01T05:52:37;98048.06;;;10.24;66.81
18323;BME280;9287;49.456;11.064;2023-05-01T05:55:07;98037.13;;;10.24;66.63
18323;BME280;9287;49.456;11.064;2023-05-01T05:57:35;98040.81;;;10.16;66.46
18323;BME280;9287;49.456;11.064;2023-05-01T06:00:03;98030.28;;;10.30;65.95
18323;BME280;9287;49.456;11.064;2023-05-01T06:02:32;98044.19;;;10.25;66.54
18323;BME280;9287;49.456;11.064;2023-05-01T06:05:05;98033.47;;;10.32;65.65
18323;BME280;9287;49.456;11.064;2023-05-01T06:07:33;98036.44;;;10.55;64.81
18323;BME280;9287;49.456;11.064;2023-05-01T06:10:01;98032.94;;;10.42;65.75
18323;BME280;9287;49.456;11.064;2023-05-01T06:12:31;98034.03;;;10.54;65.05
18323;BME280;9287;49.456;11.064;2023-05-01T06:15:03;98029.72;;;10.53;65.17
18323;BME280;9287;49.456;11.064;2023-05-01T06:17:32;98023.03;;;10.97;63.29
18323;BME280;9287;49.456;11.064;2023-05-01T06:20:01;98019.59;;;11.00;62.80
18323;BME280;9287;49.456;11.064;2023-05-01T06:22:32;98020.28;;;10.97;62.65
18323;BME280;9287;49.456;11.064;2023-05-01T06:25:00;98026.16;;;11.31;60.84
18323;BME280;9287;49.456;11.064;2023-05-01T06:27:28;98028.53;;;11.67;59.02
18323;BME280;9287;49.456;11.064;2023-05-01T06:29:55;98026.41;;;11.26;59.93
18323;BME280;9287;49.456;11.064;2023-05-01T06:32:23;98027.47;;;11.37;60.47
18323;BME280;9287;49.456;11.064;2023-05-01T06:34:51;98022.94;;;11.79;58.71
18323;BME280;9287;49.456;11.064;2023-05-01T06:37:19;98021.44;;;11.47;59.33
18323;BME280;9287;49.456;11.064;2023-05-01T06:39:49;98012.66;;;11.38;60.19
18323;BME280;9287;49.456;11.064;2023-05-01T06:42:16;98011.78;;;11.34;61.17
18323;BME280;9287;49.456;11.064;2023-05-01T06:44:46;98011.88;;;11.37;60.50
18323;BME280;9287;49.456;11.064;2023-05-01T06:47:14;98005.28;;;11.23;61.40
18323;BME280;9287;49.456;11.064;2023-05-01T06:49:42;98013.56;;;11.10;61.96
18323;BME280;9287;49.456;11.064;2023-05-01T06:52:10;98011.94;;;11.06;62.62
18323;BME280;9287;49.456;11.064;2023-05-01T06:54:38;98019.41;;;10.93;63.00
18323;BME280;9287;49.456;11.064;2023-05-01T06:57:08;98006.38;;;11.02;63.00
18323;BME280;9287;49.456;11.064;2023-05-01T06:59:35;98008.94;;;10.95;63.67
18323;BME280;9287;49.456;11.064;2023-05-01T07:02:03;98008.56;;;11.12;63.16
18323;BME280;9287;49.456;11.064;2023-05-01T07:04:31;98014.00;;;11.28;62.82
18323;BME280;9287;49.456;11.064;2023-05-01T07:06:59;98019.00;;;11.61;62.20
18323;BME280;9287;49.456;11.064;2023-05-01T07:09:28;98012.44;;;12.01;59.72
18323;BME280;9287;49.456;11.064;2023-05-01T07:11:57;98013.41;;;12.31;58.47
18323;BME280;9287;49.456;11.064;2023-05-01T07:14:26;98005.94;;;14.06;52.84
18323;BME280;9287;49.456;11.064;2023-05-01T07:16:54;98011.66;;;14.60;50.16
18323;BME280;9287;49.456;11.064;2023-05-01T07:19:22;98003.91;;;15.17;48.85
18323;BME280;9287;49.456;11.064;2023-05-01T07:21:49;97997.25;;;15.25;47.65
18323;BME280;9287;49.456;11.064;2023-05-01T07:24:17;97991.88;;;16.23;45.86
18323;BME280;9287;49.456;11.064;2023-05-01T07:26:46;97993.84;;;16.19;45.08
18323;BME280;9287;49.456;11.064;2023-05-01T07:29:14;97987.03;;;14.34;48.94
18323;BME280;9287;49.456;11.064;2023-05-01T07:31:45;97984.72;;;14.77;48.82
18323;BME280;9287;49.456;11.064;2023-05-01T07:34:14;97983.00;;;14.61;49.11
18323;BME280;9287;49.456;11.064;2023-05-01T07:36:43;97978.75;;;14.68;nan
18323;BME280;9287;49.456;11.064;2023-05-01T07:39:11;97964.63;;;15.20;48.52
18323;BME280;9287;49.456;11.064;2023-05-01T07:41:40;97969.31;;;15.85;47.46
18323;BME280;9287;49.456;11.064;2023-05-01T07:44:07;97973.03;;;16.46;45.57
18323;BME280;9287;49.456;11.064;2023-05-01T07:46:35;97973.03;;;16.46;45.52
18323;BME280;9287;49.456;11.064;2023-05-01T07:49:05;97968.69;;;17.52;43.63
18323;BME280;9287;49.456;11.064;2023-05-01T07:51:32;97976.88;;;17.94;42.45
18323;BME280;9287;49.456;11.064;2023-05-01T07:54:00;97967.09;;;17.51;42.74
18323;BME280;9287;49.456;11.064;2023-05-01T07:56:29;97967.16;;;16.44;44.50
18323;BME280;9287;49.456;11.064;2023-05-01T07:58:58;97970.25;;;17.67;43.06
18323;BME280;9287;49.456;11.064;2023-05-01T08:01:26;97959.31;;;16.89;43.22
18323;BME280;9287;49.456;11.064;2023-05-01T08:03:53;97955.75;;;17.20;43.22
18323;BME280;9287;49.456;11.064;2023-05-01T08:06:23;97953.69;;;17.49;42.88
18323;BME280;9287;49.456;11.064;2023-05-01T08:08:51;97951.44;;;16.87;43.92
18323;BME280;9287;49.456;11.064;2023-05-01T08:11:19;97950.66;;;16.87;43.85
18323;BME280;9287;49.456;11.064;2023-05-01T08:13:47;97947.41;;;17.49;43.94
18323;BME280;9287;49.456;11.064;2023-05-01T08:16:15;97950.63;;;18.34;41.36
18323;BME280;9287;49.456;11.064;2023-05-01T08:18:46;97943.44;;;17.50;42.52
18323;BME280;9287;49.456;11.064;2023-05-01T08:21:14;97947.47;;;17.02;43.36
18323;BME280;9287;49.456;11.064;2023-05-01T08:23:46;97943.97;;;16.91;44.19
18323;BME280;9287;49.456;11.064;2023-05-01T08:26:16;97948.94;;;17.60;43.29
18323;BME280;9287;49.456;11.064;2023-05-01T08:28:46;97932.06;;;18.35;42.00
18323;BME280;9287;49.456;11.064;2023-05-01T08:31:14;97941.91;;;17.42;43.06
18323;BME280;9287;49.456;11.064;2023-05-01T08:33:42;97942.47;;;18.02;42.39
18323;BME280;9287;49.456;11.064;2023-05-01T08:36:10;97945.69;;;17.97;42.79
18323;BME280;9287;49.456;11.064;2023-05-01T08:38:40;97938.66;;;17.82;43.02
18323;BME280;9287;49.456;11.064;2023-05-01T08:41:14;97939.50;;;17.65;42.97
18323;BME280;9287;49.456;11.064;2023-05-01T08:43:42;97948.06;;;17.95;42.76
18323;BME280;9287;49.456;11.064;2023-05-01T08:46:11;97942.63;;;17.67;42.76
18323;BME280;9287;49.456;11.064;2023-05-01T08:48:40;97937.25;;;16.60;45.33
18323;BME280;9287;49.456;11.064;2023-05-01T08:51:10;97938.06;;;16.79;44.35
18323;BME280;9287;49.456;11.064;2023-05-01T08:53:41;97939.13;;;16.28;45.64
18323;BME280;9287;49.456;11.064;2023-05-01T08:56:12;97947.47;;;16.42;45.22
18323;BME280;9287;49.456;11.064;2023-05-01T08:58:41;97937.81;;;15.72;46.64
18323;BME280;9287;49.456;11.064;2023-05-01T09:01:12;97930.81;;;15.99;47.37
18323;BME280;9287;49.456;11.064;2023-05-01T09:03:45;97942.69;;;16.18;45.78
18323;BME280;9287;49.456;11.064;2023-05-01T09:06:15;97940.06;;;15.52;46.39
18323;BME280;9287;49.456;11.064;2023-05-01T09:08:43;97940.97;;;15.09;47.56
18323;BME280;9287;49.456;11.064;2023-05-01T09:11:12;97936.56;;;15.55;46.67
18323;BME280;9287;49.456;11.064;2023-05-01T09:13:41;97940.66;;;15.24;47.32
18323;BME280;9287;49.456;11.064;2023-05-01T09:16:10;97942.31;;;15.32;46.98
18323;BME280;9287;49.456;11.064;2023-05-01T09:18:38;97942.31;;;15.32;46.77
18323;BME280;9287;49.456;11.064;2023-05-01T09:21:07;97940.59;;;15.10;47.33
18323;BME280;9287;49.456;11.064;2023-05-01T09:23:36;97947.06;;;15.43;47.53
18323;BME280;9287;49.456;11.064;2023-05-01T09:26:04;97943.56;;;15.49;46.67
18323;BME280;9287;49.456;11.064;2023-05-01T09:28:43;97951.03;;;15.49;46.78
18323;BME280;9287;49.456;11.064;2023-05-01T09:31:21;97950.16;;;15.30;47.39
18323;BME280;9287;49.456;11.064;2023-05-01T09:33:51;97941.31;;;15.00;47.51
18323;BME280;9287;49.456;11.064;2023-05-01T09:36:23;97938.50;;;15.55;46.44
18323;BME280;9287;49.456;11.064;2023-05-01T09:38:52;97942.50;;;15.68;46.88
18323;BME280;9287;49.456;11.064;2023-05-01T09:41:19;97939.34;;;15.66;46.05
18323;BME280;9287;49.456;11.064;2023-05-01T09:43:51;97939.19;;;15.41;47.05
18323;BME280;9287;49.456;11.064;2023-05-01T09:46:40;97942.94;;;15.12;47.96
18323;BME280;9287;49.456;11.064;2023-05-01T09:49:09;97943.69;;;15.67;47.07
18323;BME280;9287;49.456;11.064;2023-05-01T09:51:37;97940.13;;;15.63;46.87
18323;BME280;9287;49.456;11.064;2023-05-01T09:54:16;97950.38;;;15.66;46.96
18323;BME280;9287;49.456;11.064;2023-05-01T09:56:49;97948.63;;;15.44;47.38
18323;BME280;9287;49.456;11.064;2023-05-01T09:59:19;97947.47;;;15.45;47.49
18323;BME280;9287;49.456;11.064;2023-05-01T10:01:47;97948.56;;;15.29;48.22
18323;BME280;9287;49.456;11.064;2023-05-01T10:04:16;97953.91;;;15.08;48.33
18323;BME280;9287;49.456;11.064;2023-05-01T10:06:45;97950.66;;;14.92;48.83
18323;BME280;9287;49.456;11.064;2023-05-01T10:09:25;97944.41;;;14.95;48.79
18323;BME280;9287;49.456;11.064;2023-05-01T10:11:55;97946.00;;;14.96;48.70
18323;BME280;9287;49.456;11.064;2023-05-01T10:14:28;97946.41;;;14.50;49.96
18323;BME280;9287;49.456;11.064;2023-05-01T10:16:59;97951.16;;;14.53;50.30
18323;BME280;9287;49.456;11.064;2023-05-01T10:19:28;97941.78;;;14.61;50.15
18323;BME280;9287;49.456;11.064;2023-05-01T10:21:57;97941.34;;;15.07;49.89
18323;BME280;9287;49.456;11.064;2023-05-01T10:24:25;97952.09;;;15.23;49.88
18323;BME280;9287;49.456;11.064;2023-05-01T10:26:54;97952.09;;;14.72;50.25
18323;BME280;9287;49.456;11.064;2023-05-01T10:29:24;97946.19;;;14.29;53.59
18323;BME280;9287;49.456;11.064;2023-05-01T10:31:55;97955.66;;;14.35;55.07
18323;BME280;9287;49.456;11.064;2023-05-01T10:34:26;97957.38;;;14.47;57.74
18323;BME280;9287;49.456;11.064;2023-05-01T10:36:57;97955.19;;;14.67;58.68
18323;BME280;9287;49.456;11.064;2023-05-01T10:39:30;97958.28;;;14.61;61.01
18323;BME280;9287;49.456;11.064;2023-05-01T10:42:06;97959.03;;;14.18;73.19
18323;BME280;9287;49.456;11.064;2023-05-01T10:44:37;97958.25;;;13.84;81.27
18323;BME280;9287;49.456;11.064;2023-05-01T10:50:12;97965.97;;;13.18;97.94
18323;BME280;9287;49.456;11.064;2023-05-01T10:53:15;97961.63;;;12.91;96.50
18323;BME280;9287;49.456;11.064;2023-05-01T10:55:46;97962.38;;;12.88;100.00
18323;BME280;9287;49.456;11.064;2023-05-01T11:01:33;97973.94;;;12.32;100.00
18323;BME280;9287;49.456;11.064;2023-05-01T11:04:03;97965.03;;;12.16;100.00
18323;BME280;9287;49.456;11.064;2023-05-01T11:06:35;97967.06;;;12.00;100.00
18323;BME280;9287;49.456;11.064;2023-05-01T11:09:34;97970.94;;;11.60;100.00
18323;BME280;9287;49.456;11.064;2023-05-01T11:12:03;97968.03;;;11.34;100.00
18323;BME280;9287;49.456;11.064;2023-05-01T11:15:02;97964.22;;;11.19;100.00
18323;BME280;9287;49.456;11.064;2023-05-01T11:17:47;97975.31;;;11.10;100.00
18323;BME280;9287;49.456;11.064;2023-05-01T11:20:44;97969.00;;;11.06;100.00
18323;BME280;9287;49.456;11.064;2023-05-01T11:23:18;97977.59;;;11.08;100.00
18323;BME280;9287;49.456;11.064;2023-05-01T11:25:49;97975.75;;;11.12;100.00
18323;BME280;9287;49.456;11.064;2023-05-01T11:28:20;97969.06;;;11.10;100.00
18323;BME280;9287;49.456;11.064;2023-05-01T11:30:52;97966.53;;;11.01;100.00
18323;BME280;9287;49.456;11.064;2023-05-01T11:33:22;97964.25;;;11.03;100.00
18323;BME280;9287;49.456;11.064;2023-05-01T11:35:59;97966.69;;;11.08;100.00
18323;BME280;9287;49.456;11.064;2023-05-01T11:38:29;97962.28;;;11.20;100.00
18323;BME280;9287;49.456;11.064;2023-05-01T11:41:00;97959.97;;;11.22;100.00
18323;BME280;9287;49.456;11.064;2023-05-01T11:43:30;97961.16;;;11.40;100.00
18323;BME280;9287;49.456;11.064;2023-05-01T11:45:58;97966.13;;;11.54;100.00
18323;BME280;9287;49.456;11.064;2023-05-01T11:48:30;97960.56;;;11.50;100.00
18323;BME280;9287;49.456;11.064;2023-05-01T11:50:58;97965.34;;;11.53;100.00
18323;BME280;9287;49.456;11.064;2023-05-01T11:53:26;97963.66;;;11.48;100.00
18323;BME280;9287;49.456;11.064;2023-05-01T11:55:55;97966.50;;;11.71;100.00
18323;BME280;9287;49.456;11.064;2023-05-01T11:58:32;97962.75;;;11.79;100.00
18323;BME280;9287;49.456;11.064;2023-05-01T12:01:02;97969.09;;;11.83;100.00
18323;BME280;9287;49.456;11.064;2023-05-01T12:03:40;97959.91;;;11.92;100.00
18323;BME280;9287;49.456;11.064;2023-05-01T12:06:09;97964.50;;;11.88;100.00
18323;BME280;9287;49.456;11.064;2023-05-01T12:08:43;97963.91;;;11.98;100.00
18323;BME280;9287;49.456;11.064;2023-05-01T12:11:13;97971.13;;;12.06;100.00
18323;BME280;9287;49.456;11.064;2023-05-01T12:13:41;97962.91;;;12.06;100.00
18323;BME280;9287;49.456;11.064;2023-05-01T12:16:13;97963.44;;;12.15;100.00
18323;BME280;9287;49.456;11.064;2023-05-01T12:18:42;97961.88;;;12.14;100.00
18323;BME280;9287;49.456;11.064;2023-05-01T12:21:14;97964.91;;;12.09;100.00
18323;BME280;9287;49.456;11.064;2023-05-01T12:23:43;97961.16;;;12.17;100.00
18323;BME280;9287;49.456;11.064;2023-05-01T12:26:17;97967.47;;;12.21;100.00
18323;BME280;9287;49.456;11.064;2023-05-01T12:28:53;97964.56;;;12.33;100.00
18323;BME280;9287;49.456;11.064;2023-05-01T12:31:21;97966.63;;;12.17;100.00
18323;BME280;9287;49.456;11.064;2023-05-01T12:33:53;97964.56;;;12.33;100.00
18323;BME280;9287;49.456;11.064;2023-05-01T12:36:23;97960.81;;;12.41;100.00
18323;BME280;9287;49.456;11.064;2023-05-01T12:39:01;97959.78;;;12.49;100.00
18323;BME280;9287;49.456;11.064;2023-05-01T12:41:38;97952.53;;;12.61;100.00
18323;BME280;9287;49.456;11.064;2023-05-01T12:44:18;97965.31;;;12.76;100.00
18323;BME280;9287;49.456;11.064;2023-05-01T12:46:54;97953.09;;;12.96;100.00
18323;BME280;9287;49.456;11.064;2023-05-01T12:49:23;97960.25;;;13.04;100.00
18323;BME280;9287;49.456;11.064;2023-05-01T12:51:54;97962.69;;;13.09;100.00
18323;BME280;9287;49.456;11.064;2023-05-01T12:54:25;97965.97;;;13.18;100.00
18323;BME280;9287;49.456;11.064;2023-05-01T12:57:04;97964.09;;;13.22;100.00
18323;BME280;9287;49.456;11.064;2023-05-01T12:59:35;97962.69;;;13.09;100.00
18323;BME280;9287;49.456;11.064;2023-05-01T13:02:07;97957.75;;;12.92;100.00
18323;BME280;9287;49.456;11.064;2023-05-01T13:04:38;97953.84;;;12.93;100.00
18323;BME280;9287;49.456;11.064;2023-05-01T13:07:10;97955.31;;;12.87;100.00
18323;BME280;9287;49.456;11.064;2023-05-01T13:09:50;97945.94;;;12.88;100.00
18323;BME280;9287;49.456;11.064;2023-05-01T13:12:21;97948.97;;;12.83;100.00
18323;BME280;9287;49.456;11.064;2023-05-01T13:14:50;97960.78;;;12.87;100.00
18323;BME280;9287;49.456;11.064;2023-05-01T13:17:22;97943.59;;;12.90;100.00
18323;BME280;9287;49.456;11.064;2023-05-01T13:19:54;97948.34;;;12.93;100.00
18323;BME280;9287;49.456;11.064;2023-05-01T13:22:30;97944.53;;;12.98;100.00
18323;BME280;9287;49.456;11.064;2023-05-01T13:24:58;97944.97;;;13.03;100.00
18323;BME280;9287;49.456;11.064;2023-05-01T13:27:28;97944.88;;;12.96;100.00
18323;BME280;9287;49.456;11.064;2023-05-01T13:29:57;97944.78;;;12.89;100.00
18323;BME280;9287;49.456;11.064;2023-05-01T13:32:26;97950.97;;;12.86;100.00